Angels Camp, CA

6:10 PM PST on December 17, 2014 (GMT -0800)
Angels Camp Hills | Change Station
CLOSE
Current Station
Personal Weather Station
Location: Angels Camp, CA
Elevation: 1545 ft
Nearby Weather Stations

Elev 1545 ft 38.07 °N, 120.54 °W | Updated 22 seconds ago

Overcast
Overcast
47.3 °F
Feels Like 47 °F
N
0.0
Wind Variable Wind from ENE
Gusts 1.0 mph

Today
High -- | Low -- °F
--% Chance of Precip.
Yesterday
High -- | Low -- °F
Precip. -- in
7:12 AM 4:44 PM
Waning Crescent, 18% visible
Pressure 30.06 in
Visibility 8.0 miles
Clouds Overcast 3700 ft
Windchill 47 °F
Dew Point 44 °F
Humidity 88%
Rainfall 0.14 in
Snow Depth Not available.
UV 0 out of 12
Pollen .60 out of 12
Air Quality Not available.
Flu Activity Not available.
METAR KO22 180155Z AUTO 00000KT 8SM OVC037 07/07 A3006 RMK AO1

More Conditions Fewer Conditions

Pressure 30.06 in
Visibility 8.0 miles
Clouds Overcast 3700 ft
Windchill 47 °F
Dew Point 44 °F
Humidity 88%
Rainfall 0.14 in
Snow Depth Not available.
UV 0 out of 12
Pollen .60 out of 12
Air Quality Not available.
Flu Activity Not available.
METAR KO22 180155Z AUTO 00000KT 8SM OVC037 07/07 A3006 RMK AO1

More Conditions Fewer Conditions

10-Day Weather Forecast

Almanac

Astronomy

Dec. 17, 2014 Rise Set
Actual Time
Civil Twilight
Nautical Twilight
Astronomical Twilight
Moon
Length of Visible Light
Length of Day
Tomorrow will be .
, % of the Moon is Illuminated

Today's Extremes

State Highs State Lows

Community

WunderPhotos

Upload Photos

1,778,859 photos uploaded!

WunderBlogs® & News

Nearby

Air Quality

  Air Quality AQ Index Pollutant
Not available.

Snow Depth

Station Depth Elevation

Earthquake Activity

City Distance Mag. Time & Date
Minimum magnitude displayed is 2.5.

Coastal Water Temperatures

Place Temperature

Nearby Weather Stations